Terminal Aerodrome Forecast
Issued by NWS Newport/Morehead City, NC

Home | Current Version | Previous Version | Graphics & Text | Print | Product List | Glossary On
Versions: 1 2 3 4 5 6 7 8 9 10 11 12 13 14
000
FTUS42 KMHX 250659 AAA
TAFEWN
TAF AMD
KEWN 250659Z 2507/2606 VRB03KT P6SM FEW250
      TEMPO 2507/2510 1SM BR
     FM251500 14006KT P6SM SCT050=

USA.gov is the U.S. government's official web portal to all federal, state and local government web resources and services.